Terminal Aerodrome Forecast
Issued by NWS

Home | Current Version | Previous Version | Text Only | Print | Product List | Glossary On
Versions: 1 2 3 4 5 6 7 8 9 10 11 12 13 14 15 16 17 18 19 20 21 22 23 24
000
FTUS43 KGRR 251400 AAB
TAFAZO
TAF AMD
KAZO 251411Z 2514/2612 27012G18KT 4SM BR OVC008
     FM251500 26010KT 5SM BR BKN015
     FM251700 27014G24KT P6SM SKC
     FM252300 28011KT P6SM SKC
     FM260600 29008KT P6SM SKC=

USA.gov is the U.S. government's official web portal to all federal, state and local government web resources and services.